Flight Track Log - Related Links

Times and Time Zones

All times are in EDT time to prevent confusion due to time zone crossing. See the SWA796 flight status page for this flight to view local times or setup timezone preferences in your user account.

Time Position Orientation Groundspeed Altitude Reporting Facility
EDT Latitude Longitude Course Direction KTS MPH feet Rate Location/Type
Sat 11:54:56 AM 39.9922 -82.8139 90° East 201 231 2,900  Level Indianapolis Center
Sat 11:55:15 AM 39.9925 -82.7989 89° East 203 234 3,500 2,074 Climbing Indianapolis Center
Sat 11:56:17 AM 40.0456 -82.7667 25° Northeast 258 297 5,700 2,488 Climbing Indianapolis Center
Sat 11:57:18 AM 40.0611 -82.8628 282° West 283 326 8,600 2,508 Climbing Indianapolis Center
Sat 11:58:19 AM 40.0564 -82.9711 267° West 295 339 10,800 2,439 Climbing Indianapolis Center
Sat 11:59:21 AM 40.0492 -83.1153 266° West 338 389 13,600 2,341 Climbing Indianapolis Center
Sat 12:00:22 PM 40.0417 -83.2456 266° West 358 412 15,600 2,016 Climbing Indianapolis Center
Sat 12:01:23 PM 40.0333 -83.3794 265° West 368 423 17,700 1,756 Climbing Indianapolis Center
Sat 12:02:25 PM 40.0247 -83.5167 265° West 380 437 19,200 1,561 Climbing Indianapolis Center
Sat 12:03:26 PM 40.0158 -83.6578 265° West 390 449 20,900 1,574 Climbing Indianapolis Center
Sat 12:04:27 PM 40.0072 -83.8033 266° West 399 459 22,400 1,623 Climbing Indianapolis Center
Sat 12:05:28 PM 39.9975 -83.9519 265° West 408 470 24,200 1,463 Climbing Indianapolis Center
Sat 12:06:30 PM 39.9872 -84.1000 265° West 409 471 25,400 829 Climbing Indianapolis Center
Sat 12:07:31 PM 39.9778 -84.2531 265° West 417 480 25,900 246 Climbing Indianapolis Center
Sat 12:08:32 PM 39.9661 -84.4281 265° West 414 476 25,900 -244 Level Indianapolis Center
Sat 12:09:34 PM 39.9550 -84.5761 264° West 411 473 25,400 -829 Descending Indianapolis Center
Sat 12:10:35 PM 39.9453 -84.7150 265° West 392 451 24,200 -1,033 Descending Indianapolis Center
Sat 12:11:36 PM 39.9344 -84.8492 264° West 373 429 23,300 -836 Descending Indianapolis Center
Sat 12:12:37 PM 39.9256 -84.9800 265° West 365 420 22,500 -634 Descending Indianapolis Center
Sat 12:13:39 PM 39.9156 -85.1128 264° West 367 422 22,000 -293 Descending Indianapolis Center
Sat 12:14:40 PM 39.9053 -85.2503 264° West 379 436 21,900 -49 Descending Indianapolis Center
Sat 12:15:41 PM 39.8947 -85.3947 265° West 396 456 21,900  Level Indianapolis Center
Sat 12:16:43 PM 39.8831 -85.5400 264° West 400 460 21,900  Level Indianapolis Center
Sat 12:17:44 PM 39.8711 -85.6869 264° West 406 467 21,900  Level Indianapolis Center
Sat 12:18:45 PM 39.8600 -85.8342 264° West 407 468 21,900  Level Indianapolis Center
Sat 12:19:46 PM 39.8469 -85.9819 263° West 410 472 21,900  Level Indianapolis Center
Sat 12:20:48 PM 39.8328 -86.1542 264° West 411 473 21,900  Level Indianapolis Center
Sat 12:21:49 PM 39.8211 -86.2956 264° West 404 465 21,900 541 Level Indianapolis Center
Sat 12:22:50 PM 39.8008 -86.4333 259° West 399 459 23,000 1,415 Climbing Indianapolis Center
Sat 12:23:52 PM 39.7711 -86.5739 255° West 403 464 24,800 1,415 Climbing Indianapolis Center
Sat 12:24:53 PM 39.7417 -86.7108 254° West 393 452 25,900 541 Climbing Indianapolis Center
Sat 12:25:54 PM 39.7119 -86.8478 254° West 392 451 25,900  Level Indianapolis Center
Sat 12:26:55 PM 39.6828 -86.9831 254° West 390 449 25,900  Level Indianapolis Center
Sat 12:27:57 PM 39.6483 -87.1414 254° West 388 447 25,900  Level Indianapolis Center
Sat 12:28:58 PM 39.6175 -87.2778 254° West 392 451 25,900  Level Indianapolis Center
Sat 12:29:59 PM 39.5878 -87.4156 254° West 394 453 25,900  Level Indianapolis Center
Sat 12:31:01 PM 39.5569 -87.5519 254° West 393 452 25,900 195 Level Indianapolis Center
Sat 12:32:02 PM 39.5264 -87.6894 254° West 394 453 26,300 738 Climbing Indianapolis Center
Sat 12:33:03 PM 39.4958 -87.8256 254° West 392 451 27,400 1,277 Climbing Indianapolis Center
Sat 12:33:36 PM 39.4817 -87.8903 254° West 388 447 28,300 1,453 Climbing Kansas City Center
Sat 12:34:38 PM 39.4519 -88.0242 254° West 388 447 29,700 1,171 Climbing Kansas City Center
Sat 12:35:39 PM 39.4217 -88.1556 253° West 384 442 30,700 1,180 Climbing Kansas City Center
Sat 12:36:40 PM 39.3847 -88.3133 253° West 383 441 32,100 1,268 Climbing Kansas City Center
Sat 12:37:42 PM 39.3539 -88.4442 253° West 381 438 33,300 927 Climbing Kansas City Center
Sat 12:38:43 PM 39.3233 -88.5706 253° West 372 428 34,000 293 Climbing Kansas City Center
Sat 12:39:45 PM 39.2958 -88.6931 254° West 370 426 33,900 -49 Descending Kansas City Center
Sat 12:40:46 PM 39.2658 -88.8175 253° West 368 423 33,900  Level Kansas City Center
Sat 12:41:48 PM 39.2361 -88.9425 253° West 367 422 33,900  Level Kansas City Center
Sat 12:42:50 PM 39.2083 -89.0661 254° West 362 417 33,900 49 Level Kansas City Center
Sat 12:43:51 PM 39.1792 -89.1881 253° West 359 413 34,000 49 Climbing Kansas City Center
Sat 12:44:53 PM 39.1425 -89.3389 253° West 360 414 34,000  Level Kansas City Center
Sat 12:45:54 PM 39.1122 -89.4656 253° West 368 423 34,000  Level Kansas City Center
Sat 12:46:56 PM 39.0808 -89.5922 252° West 372 428 34,000  Level Kansas City Center
Sat 12:47:57 PM 39.0478 -89.7300 253° West 376 433 34,000  Level Kansas City Center
Sat 12:48:59 PM 39.0167 -89.8578 253° West 376 433 34,000  Level Kansas City Center
Sat 12:50:01 PM 38.9847 -89.9856 252° West 377 434 34,000 -49 Level Kansas City Center
Sat 12:51:02 PM 38.9575 -90.0986 253° West 375 432 33,900 -49 Descending Kansas City Center
Sat 12:52:04 PM 38.9228 -90.2408 253° West 373 429 33,900  Level Kansas City Center
Sat 12:53:05 PM 38.8922 -90.3697 253° West 374 430 33,900  Level Kansas City Center
Sat 12:54:07 PM 38.8581 -90.4997 251° West 380 437 33,900  Level Kansas City Center
Sat 12:56:10 PM 38.8231 -90.7739 261° West 385 443 33,900  Level Kansas City Center
Sat 12:57:12 PM 38.8017 -90.9367 260° West 390 449 33,900  Level Kansas City Center
Sat 12:58:13 PM 38.7833 -91.0725 260° West 389 448 33,900  Level Kansas City Center
Sat 12:59:15 PM 38.7650 -91.2081 260° West 388 447 33,900  Level Kansas City Center
Sat 01:00:16 PM 38.7469 -91.3419 260° West 386 444 33,900  Level Kansas City Center
Sat 01:01:18 PM 38.7286 -91.4769 260° West 386 444 33,900  Level Kansas City Center
Sat 01:02:20 PM 38.7117 -91.6142 261° West 384 442 33,900  Level Kansas City Center
Sat 01:03:21 PM 38.6931 -91.7481 260° West 382 440 33,900  Level Kansas City Center
Sat 01:04:23 PM 38.6742 -91.8808 260° West 382 440 33,900  Level Kansas City Center
Sat 01:05:25 PM 38.6503 -92.0403 259° West 381 438 33,900  Level Kansas City Center
Sat 01:06:26 PM 38.6303 -92.1719 259° West 379 436 33,900  Level Kansas City Center
Sat 01:07:28 PM 38.6128 -92.3039 260° West 378 435 33,900  Level Kansas City Center
Sat 01:08:30 PM 38.5925 -92.4350 259° West 377 434 33,900  Level Kansas City Center
Sat 01:09:31 PM 38.5731 -92.5661 259° West 376 433 33,900  Level Kansas City Center
Sat 01:10:33 PM 38.5533 -92.6992 259° West 379 436 33,900  Level Kansas City Center
Sat 01:11:35 PM 38.5331 -92.8325 259° West 382 440 33,900  Level Kansas City Center
Sat 01:12:37 PM 38.5089 -92.9925 259° West 382 440 33,900  Level Kansas City Center
Sat 01:13:38 PM 38.4883 -93.1269 259° West 385 443 33,900 49 Level Kansas City Center
Sat 01:14:40 PM 38.4669 -93.2614 259° West 387 445 34,000  Climbing Kansas City Center
Sat 01:15:42 PM 38.4464 -93.3956 259° West 386 444 33,900 -48 Descending Kansas City Center
Sat 01:16:44 PM 38.4261 -93.5300 259° West 386 444 33,900  Level Kansas City Center
Sat 01:17:45 PM 38.4044 -93.6664 259° West 390 449 33,900 49 Level Kansas City Center
Sat 01:18:47 PM 38.3842 -93.8022 259° West 391 450 34,000  Climbing Kansas City Center
Sat 01:19:49 PM 38.3564 -93.9711 258° West 401 461 33,900 -48 Descending Kansas City Center
Sat 01:20:51 PM 38.3372 -94.1025 260° West 404 465 33,900  Level Kansas City Center
Sat 01:21:53 PM 38.3133 -94.2403 258° West 409 471 33,900  Level Kansas City Center
Sat 01:22:54 PM 38.2878 -94.3997 259° West 412 474 33,900  Level Kansas City Center
Sat 01:23:56 PM 38.2642 -94.5378 258° West 413 475 33,900  Level Kansas City Center
Sat 01:24:58 PM 38.2400 -94.6964 259° West 412 474 33,900  Level Kansas City Center
Sat 01:26:00 PM 38.2181 -94.8339 259° West 412 474 33,900  Level Kansas City Center
Sat 01:27:02 PM 38.1917 -94.9947 258° West 413 475 33,900  Level Kansas City Center
Sat 01:28:04 PM 38.1700 -95.1342 259° West 417 480 33,900  Level Kansas City Center
Sat 01:29:06 PM 38.1469 -95.2722 258° West 418 481 33,900  Level Kansas City Center
Sat 01:30:07 PM 38.1197 -95.4317 258° West 413 475 33,900  Level Kansas City Center
Sat 01:31:09 PM 38.0961 -95.5681 258° West 413 475 33,900  Level Kansas City Center
Sat 01:32:11 PM 38.0678 -95.7272 257° West 412 474 33,900  Level Kansas City Center
Sat 01:33:13 PM 38.0447 -95.8647 258° West 414 476 33,900  Level Kansas City Center
Sat 01:34:15 PM 38.0183 -96.0225 258° West 412 474 33,900  Level Kansas City Center
Sat 01:35:17 PM 37.9947 -96.1619 258° West 413 475 33,900  Level Kansas City Center
Sat 01:36:19 PM 37.9711 -96.3042 258° West 412 474 33,900  Level Kansas City Center
Sat 01:37:20 PM 37.9478 -96.4461 258° West 412 474 33,900  Level Kansas City Center
Sat 01:38:22 PM 37.9236 -96.5881 258° West 412 474 33,900 145 Level Kansas City Center
Sat 01:39:24 PM 37.8997 -96.7294 258° West 412 474 34,200 581 Climbing Kansas City Center
Sat 01:40:26 PM 37.8700 -96.9031 258° West 419 482 35,100 871 Climbing Kansas City Center
Sat 01:41:28 PM 37.8431 -97.0483 257° West 422 486 36,000 387 Climbing Kansas City Center
Sat 01:42:30 PM 37.8172 -97.1939 257° West 424 488 35,900 -48 Descending Kansas City Center
Sat 01:43:32 PM 37.7911 -97.3392 257° West 423 487 35,900  Level Kansas City Center
Sat 01:44:34 PM 37.7622 -97.4894 256° West 417 480 35,900  Level Kansas City Center
Sat 01:45:35 PM 37.7364 -97.6314 257° West 416 479 35,900  Level Kansas City Center
Sat 01:46:37 PM 37.7092 -97.7728 256° West 414 476 35,900  Level Kansas City Center
Sat 01:47:39 PM 37.6819 -97.9139 256° West 414 476 35,900  Level Kansas City Center
Sat 01:48:41 PM 37.6544 -98.0547 256° West 413 475 35,900  Level Kansas City Center
Sat 01:49:43 PM 37.6278 -98.1961 257° West 416 479 35,900  Level Kansas City Center
Sat 01:50:45 PM 37.5922 -98.3686 255° West 420 483 35,900  Level Kansas City Center
Sat 01:51:47 PM 37.5639 -98.5119 256° West 421 484 35,900  Level Kansas City Center
Sat 01:52:49 PM 37.5350 -98.6547 256° West 421 484 35,900  Level Kansas City Center
Sat 01:53:51 PM 37.5058 -98.7989 256° West 422 486 35,900  Level Kansas City Center
Sat 01:54:53 PM 37.4772 -98.9422 256° West 422 486 35,900  Level Kansas City Center
Sat 01:55:55 PM 37.4478 -99.0861 256° West 424 488 35,900  Level Kansas City Center
Sat 01:56:57 PM 37.4181 -99.2317 256° West 427 491 35,900  Level Kansas City Center
Sat 01:57:59 PM 37.3817 -99.4058 255° West 429 494 35,900  Level Kansas City Center
Sat 01:59:01 PM 37.3497 -99.5553 255° West 426 490 35,900  Level Kansas City Center
Sat 02:00:03 PM 37.3208 -99.6944 255° West 428 493 35,900  Level Kansas City Center
Sat 02:01:05 PM 37.2878 -99.8550 256° West 426 490 35,900  Level Kansas City Center
Sat 02:02:06 PM 37.2567 -99.9958 255° West 432 497 35,900  Level Kansas City Center
Sat 02:03:08 PM 37.2228 -100.1561 255° West 428 493 35,900  Level Kansas City Center
Sat 02:04:10 PM 37.1931 -100.2956 255° West 430 495 35,900  Level Kansas City Center
Sat 02:05:12 PM 37.1628 -100.4347 255° West 430 495 35,900  Level Kansas City Center
Sat 02:06:14 PM 37.1267 -100.5983 255° West 433 498 35,900  Level Kansas City Center
Sat 02:07:16 PM 37.0956 -100.7381 254° West 434 499 35,900  Level Kansas City Center
Sat 02:08:18 PM 37.0592 -100.9014 254° West 434 499 35,900  Level Kansas City Center
Sat 02:09:20 PM 37.0225 -101.0406 252° West 437 503 35,900  Level Kansas City Center
Sat 02:10:22 PM 36.9714 -101.2006 248° West 441 507 35,900  Level Kansas City Center
Sat 02:11:24 PM 36.9300 -101.3364 249° West 439 505 35,900 66 Level Kansas City Center
Sat 02:11:53 PM 36.9086 -101.4056 249° West 440 506 36,000  Climbing Albuquerque Center
Sat 02:12:55 PM 36.8581 -101.5650 248° West 441 507 35,900 -48 Descending Albuquerque Center
Sat 02:13:57 PM 36.8144 -101.7014 248° West 442 509 35,900  Level Albuquerque Center
Sat 02:14:58 PM 36.7714 -101.8356 248° West 437 503 35,900  Level Albuquerque Center
Sat 02:16:00 PM 36.7211 -101.9933 248° West 438 504 35,900  Level Albuquerque Center
Sat 02:17:02 PM 36.6783 -102.1278 248° West 437 503 35,900  Level Albuquerque Center
Sat 02:18:03 PM 36.6278 -102.2858 248° West 438 504 35,900  Level Albuquerque Center
Sat 02:19:05 PM 36.5822 -102.4253 248° West 438 504 35,900  Level Albuquerque Center
Sat 02:20:06 PM 36.5356 -102.5653 248° West 439 505 35,900  Level Albuquerque Center
Sat 02:21:08 PM 36.4897 -102.7053 248° West 440 506 35,900  Level Albuquerque Center
Sat 02:22:10 PM 36.4444 -102.8439 248° West 437 503 35,900  Level Albuquerque Center
Sat 02:23:11 PM 36.3936 -103.0033 248° West 436 502 35,900  Level Albuquerque Center
Sat 02:24:13 PM 36.3458 -103.1386 246° West 428 493 35,900  Level Albuquerque Center
Sat 02:25:14 PM 36.3022 -103.2764 249° West 427 491 35,900 49 Level Albuquerque Center
Sat 02:26:16 PM 36.2567 -103.4128 248° West 425 489 36,000 48 Climbing Albuquerque Center
Sat 02:27:18 PM 36.2103 -103.5494 247° West 428 493 36,000 -49 Level Albuquerque Center
Sat 02:28:19 PM 36.1636 -103.6867 247° West 428 493 35,900 -49 Descending Albuquerque Center
Sat 02:29:21 PM 36.1169 -103.8194 247° West 422 486 35,900  Level Albuquerque Center
Sat 02:30:22 PM 36.0697 -103.9544 247° West 424 488 35,900  Level Albuquerque Center
Sat 02:31:24 PM 36.0164 -104.1117 247° West 424 488 35,900  Level Albuquerque Center
Sat 02:32:26 PM 35.9700 -104.2453 247° West 422 486 35,900  Level Albuquerque Center
Sat 02:33:27 PM 35.9242 -104.3792 247° West 422 486 35,900 49 Level Albuquerque Center
Sat 02:34:29 PM 35.8767 -104.5125 246° West 423 487 36,000 48 Climbing Albuquerque Center
Sat 02:35:31 PM 35.8472 -104.6539 256° West 422 486 36,000 -49 Level Albuquerque Center
Sat 02:36:32 PM 35.8200 -104.7939 257° West 419 482 35,900 -49 Descending Albuquerque Center
Sat 02:37:34 PM 35.7914 -104.9361 256° West 423 487 35,900 49 Level Albuquerque Center
Sat 02:38:35 PM 35.7636 -105.0792 257° West 426 490 36,000  Climbing Albuquerque Center
Sat 02:39:37 PM 35.7297 -105.2461 256° West 429 494 35,900 -48 Descending Albuquerque Center
Sat 02:40:39 PM 35.7022 -105.3881 257° West 426 490 35,900  Level Albuquerque Center
Sat 02:41:40 PM 35.6717 -105.5314 255° West 429 494 35,900  Level Albuquerque Center
Sat 02:42:42 PM 35.6453 -105.6647 256° West 428 493 35,900 49 Level Albuquerque Center
Sat 02:43:43 PM 35.6136 -105.8175 256° West 430 495 36,000  Climbing Albuquerque Center
Sat 02:44:45 PM 35.5869 -105.9483 256° West 429 494 35,900 -48 Descending Albuquerque Center
Sat 02:45:47 PM 35.5581 -106.0897 256° West 429 494 35,900  Level Albuquerque Center
Sat 02:46:48 PM 35.5231 -106.2614 256° West 432 497 35,900  Level Albuquerque Center
Sat 02:47:50 PM 35.4939 -106.4031 256° West 431 496 35,900  Level Albuquerque Center
Sat 02:48:52 PM 35.4639 -106.5433 255° West 429 494 35,900  Level Albuquerque Center
Sat 02:49:53 PM 35.4347 -106.6842 256° West 429 494 35,900  Level Albuquerque Center
Sat 02:50:55 PM 35.4042 -106.8239 255° West 429 494 35,900 48 Level Albuquerque Center
Sat 02:51:57 PM 35.3694 -106.9803 255° West 427 491 36,000  Climbing Albuquerque Center
Sat 02:52:58 PM 35.3406 -107.1144 255° West 426 490 35,900 -49 Descending Albuquerque Center
Sat 02:54:00 PM 35.3069 -107.2706 255° West 432 497 35,900  Level Albuquerque Center
Sat 02:55:03 PM 35.2758 -107.4106 255° West 430 495 35,900  Level Albuquerque Center
Sat 02:56:03 PM 35.2419 -107.5658 255° West 428 493 35,900  Level Albuquerque Center
Sat 02:57:05 PM 35.2122 -107.7003 255° West 427 491 35,900  Level Albuquerque Center
Sat 02:58:07 PM 35.1769 -107.8556 255° West 425 489 35,900  Level Albuquerque Center
Sat 02:59:08 PM 35.1475 -107.9897 255° West 425 489 35,900  Level Albuquerque Center
Sat 03:00:10 PM 35.1175 -108.1228 255° West 424 488 35,900  Level Albuquerque Center
Sat 03:01:12 PM 35.0819 -108.2789 254° West 424 488 35,900  Level Albuquerque Center
Sat 03:02:13 PM 35.0511 -108.4128 254° West 426 490 35,900  Level Albuquerque Center
Sat 03:03:15 PM 35.0153 -108.5681 254° West 425 489 35,900  Level Albuquerque Center
Sat 03:04:17 PM 34.9844 -108.7031 254° West 428 493 35,900 49 Level Albuquerque Center
Sat 03:05:18 PM 34.9528 -108.8372 254° West 429 494 36,000  Climbing Albuquerque Center
Sat 03:06:20 PM 34.9175 -108.9917 254° West 425 489 35,900  Descending Albuquerque Center
Sat 03:07:22 PM 34.8844 -109.1253 253° West 428 493 36,000  Climbing Albuquerque Center
Sat 03:08:23 PM 34.8481 -109.2839 254° West 432 497 35,900 -49 Descending Albuquerque Center
Sat 03:09:25 PM 34.8158 -109.4178 254° West 431 496 35,900  Level Albuquerque Center
Sat 03:10:26 PM 34.7833 -109.5478 253° West 423 487 35,900  Level Albuquerque Center
Sat 03:11:28 PM 34.7453 -109.7019 253° West 423 487 35,900  Level Albuquerque Center
Sat 03:12:30 PM 34.7136 -109.8356 254° West 427 491 35,900  Level Albuquerque Center
Sat 03:13:31 PM 34.6608 -109.9833 247° West 427 491 35,900  Level Albuquerque Center
Sat 03:14:33 PM 34.6133 -110.1089 245° Southwest 426 490 35,900 -629 Level Albuquerque Center
Sat 03:15:35 PM 34.5619 -110.2622 248° West 434 499 34,600 -1,902 Descending Albuquerque Center
Sat 03:16:36 PM 34.5119 -110.3825 243° Southwest 422 486 32,000 -2,341 Descending Albuquerque Center
Sat 03:17:38 PM 34.4664 -110.5156 247° West 461 531 29,800 -2,177 Descending Albuquerque Center
Sat 03:18:40 PM 34.4139 -110.6492 245° Southwest 446 513 27,500 -2,390 Descending Albuquerque Center
Sat 03:19:41 PM 34.3481 -110.8022 243° Southwest 433 498 24,900 -2,341 Descending Albuquerque Center
Sat 03:20:43 PM 34.2708 -110.9047 228° Southwest 415 478 22,700 -2,081 Descending Albuquerque Center
Sat 03:21:45 PM 34.1950 -111.0006 226° Southwest 401 461 20,600 -2,000 Descending Albuquerque Center
Sat 03:22:46 PM 34.1228 -111.0956 227° Southwest 390 449 18,600 -1,854 Descending Albuquerque Center
Sat 03:23:48 PM 34.0536 -111.1847 227° Southwest 373 429 16,800 -1,839 Descending Albuquerque Center
Sat 03:24:50 PM 33.9858 -111.2711 227° Southwest 363 418 14,800 -1,951 Descending Albuquerque Center
Sat 03:25:51 PM 33.9194 -111.3564 227° Southwest 350 403 12,800 -1,561 Descending Albuquerque Center
Sat 03:26:53 PM 33.8544 -111.4292 223° Southwest 318 366 11,600 -1,065 Descending Albuquerque Center
Sat 03:27:55 PM 33.7731 -111.4978 215° Southwest 296 341 10,600 -1,024 Descending Albuquerque Center
Sat 03:28:56 PM 33.7067 -111.5569 217° Southwest 295 339 9,500 -976 Descending Albuquerque Center
Sat 03:29:58 PM 33.6408 -111.6114 215° Southwest 286 329 8,600 -823 Descending Albuquerque Center
Sat 03:31:00 PM 33.5844 -111.6583 215° Southwest 250 288 7,800 -878 Descending Albuquerque Center
Sat 03:32:01 PM 33.5267 -111.6761 194° South 217 250 6,800 -1,122 Descending Albuquerque Center
Sat 03:33:03 PM 33.4811 -111.7142 215° Southwest 213 245 5,500 -1,161 Descending Albuquerque Center
Sat 03:34:05 PM 33.4544 -111.7697 240° Southwest 193 222 4,400 -829 Descending Albuquerque Center
Sat 03:35:06 PM 33.4408 -111.8267 254° West 181 208 3,800 -780 Descending Albuquerque Center
Sat 03:36:08 PM 33.4406 -111.8872 270° West 181 208 2,800 -871 Descending Albuquerque Center
Sat 03:37:10 PM 33.4408 -111.9436 270° West 145 167 2,000 -732 Descending Albuquerque Center
Sat 03:38:11 PM 33.4403 -111.9881 269° West 142 163 1,300 -689 Descending Albuquerque Center
Sat 03:40:00 PM 33.4343 -112.0116 270° West  Level Estimated

Login

Don't have an account? Register now (free) for customized features, flight alerts, and more!